createdAt,value
2019-05-18T00:00:30.162Z,101296.87
2019-05-18T00:03:02.122Z,101296.84
2019-05-18T00:05:34.128Z,101296.55
2019-05-18T00:08:06.251Z,101292.09
2019-05-18T00:10:38.393Z,101293.71
2019-05-18T00:13:10.377Z,101290.20
2019-05-18T00:15:42.365Z,101290.56
2019-05-18T00:18:14.335Z,101297.69
2019-05-18T00:20:46.742Z,101289.07
2019-05-18T00:23:19.225Z,101291.51
2019-05-18T00:25:51.217Z,101298.23
2019-05-18T00:28:23.258Z,101250.52
2019-05-18T00:30:55.662Z,101301.13
2019-05-18T00:33:27.762Z,101298.20
2019-05-18T00:36:00.213Z,101299.28
2019-05-18T00:38:32.199Z,101300.02
2019-05-18T00:41:04.236Z,101294.00
2019-05-18T00:43:36.308Z,101292.89
2019-05-18T00:46:08.537Z,101286.57
2019-05-18T00:48:40.857Z,101286.23
2019-05-18T00:51:12.829Z,101292.50
2019-05-18T00:53:44.786Z,101290.10
2019-05-18T00:56:16.772Z,101293.16
2019-05-18T00:58:48.783Z,101235.92
2019-05-18T01:01:20.869Z,101286.23
2019-05-18T01:03:52.854Z,101282.11
2019-05-18T01:06:24.897Z,101283.19
2019-05-18T01:08:56.859Z,101275.97
2019-05-18T01:11:28.894Z,101279.72
2019-05-18T01:14:00.875Z,101273.03
2019-05-18T01:16:32.853Z,101271.39
2019-05-18T01:19:04.831Z,101272.09
2019-05-18T01:21:36.847Z,101269.17
2019-05-18T01:24:08.789Z,101278.62
2019-05-18T01:26:40.785Z,101278.41
2019-05-18T01:29:12.719Z,101274.58
2019-05-18T01:31:44.810Z,101273.66
2019-05-18T01:34:16.865Z,101275.64
2019-05-18T01:36:48.931Z,101226.51
2019-05-18T01:39:20.953Z,101278.01
2019-05-18T01:41:52.974Z,101283.12
2019-05-18T01:44:25.019Z,101284.28
2019-05-18T01:46:56.983Z,101281.44
2019-05-18T01:49:29.038Z,101279.77
2019-05-18T01:52:01.026Z,101280.97
2019-05-18T01:54:33.071Z,101275.80
2019-05-18T01:57:05.121Z,101267.48
2019-05-18T01:59:37.096Z,101219.84
2019-05-18T02:02:09.105Z,101273.70
2019-05-18T02:04:41.236Z,101271.97
2019-05-18T02:07:13.497Z,101268.75
2019-05-18T02:09:45.749Z,101272.77
2019-05-18T02:12:17.716Z,101275.22
2019-05-18T02:14:49.947Z,101277.06
2019-05-18T02:17:22.003Z,101280.11
2019-05-18T02:19:54.225Z,101279.14
2019-05-18T02:22:26.205Z,101284.22
2019-05-18T02:24:58.238Z,101282.23
2019-05-18T02:27:30.180Z,101285.66
2019-05-18T02:30:02.197Z,101287.70
2019-05-18T02:32:34.472Z,101281.33
2019-05-18T02:35:07.471Z,101282.97
2019-05-18T02:37:39.504Z,101274.71
2019-05-18T02:40:11.970Z,101278.30
2019-05-18T02:42:44.002Z,101279.78
2019-05-18T02:45:15.965Z,101283.09
2019-05-18T02:47:48.205Z,101274.89
2019-05-18T02:50:20.240Z,101277.36
2019-05-18T02:52:52.281Z,101272.23
2019-05-18T02:55:24.652Z,101274.48
2019-05-18T02:57:57.058Z,101278.42
2019-05-18T03:00:29.100Z,101273.34
2019-05-18T03:03:01.190Z,101274.39
2019-05-18T03:05:33.369Z,101270.84
2019-05-18T03:08:05.314Z,101269.79
2019-05-18T03:10:37.304Z,101270.55
2019-05-18T03:13:09.318Z,101268.77
2019-05-18T03:15:41.501Z,101265.31
2019-05-18T03:18:13.570Z,101276.00
2019-05-18T03:20:45.598Z,101283.98
2019-05-18T03:23:17.887Z,101282.52
2019-05-18T03:25:49.946Z,101284.84
2019-05-18T03:28:21.957Z,101289.30
2019-05-18T03:30:53.943Z,101283.92
2019-05-18T03:33:29.431Z,101285.30
2019-05-18T03:35:59.845Z,101283.90
2019-05-18T03:38:31.868Z,101280.27
2019-05-18T03:41:04.409Z,101280.13
2019-05-18T03:43:36.460Z,101282.16
2019-05-18T03:46:08.514Z,101272.58
2019-05-18T03:48:40.916Z,101267.41
2019-05-18T03:51:12.907Z,101273.84
2019-05-18T03:53:45.006Z,101267.73
2019-05-18T03:56:17.031Z,101274.55
2019-05-18T03:58:49.097Z,101268.70
2019-05-18T04:01:21.253Z,101267.16
2019-05-18T04:03:53.516Z,101268.82
2019-05-18T04:06:25.839Z,101266.84
2019-05-18T04:08:58.180Z,101267.61
2019-05-18T04:11:30.499Z,101269.28
2019-05-18T04:14:07.653Z,101265.83
2019-05-18T04:16:36.786Z,101261.31
2019-05-18T04:19:08.775Z,101259.17
2019-05-18T04:21:41.261Z,101258.62
2019-05-18T04:24:13.190Z,101253.04
2019-05-18T04:26:45.426Z,101255.06
2019-05-18T04:29:17.418Z,101254.33
2019-05-18T04:31:49.376Z,101253.75
2019-05-18T04:34:21.452Z,101253.17
2019-05-18T04:36:53.609Z,101253.77
2019-05-18T04:39:25.772Z,101250.49
2019-05-18T04:41:57.777Z,101254.49
2019-05-18T04:44:29.875Z,101250.09
2019-05-18T04:47:01.994Z,101247.91
2019-05-18T04:49:33.974Z,101247.92
2019-05-18T04:52:06.047Z,101249.16
2019-05-18T04:54:39.341Z,101252.33
2019-05-18T04:57:11.334Z,101245.64
2019-05-18T04:59:43.287Z,101240.98
2019-05-18T05:02:15.328Z,101243.32
2019-05-18T05:04:47.465Z,101248.53
2019-05-18T05:07:19.610Z,101247.61
2019-05-18T05:09:51.957Z,101243.91
2019-05-18T05:12:23.989Z,101247.97
2019-05-18T05:17:45.423Z,101247.66
2019-05-18T05:20:20.071Z,101247.52
2019-05-18T05:22:51.554Z,101252.27
2019-05-18T05:25:23.540Z,101254.54
2019-05-18T05:28:12.813Z,101253.67
2019-05-18T05:31:02.120Z,101254.63
2019-05-18T05:33:51.780Z,101252.95
2019-05-18T05:36:23.912Z,101254.16
2019-05-18T05:38:56.091Z,101250.52
2019-05-18T05:41:28.163Z,101255.52
2019-05-18T05:44:00.198Z,101255.02
2019-05-18T05:46:32.296Z,101255.72
2019-05-18T05:49:04.784Z,101253.24
2019-05-18T05:51:36.788Z,101249.11
2019-05-18T05:54:08.797Z,101253.11
2019-05-18T05:56:40.795Z,101252.77
2019-05-18T05:59:12.890Z,101250.01
2019-05-18T06:01:45.074Z,101255.58
2019-05-18T06:04:17.138Z,101247.69
2019-05-18T06:06:49.301Z,101245.36
2019-05-18T06:09:21.525Z,101242.34
2019-05-18T06:11:53.579Z,101244.58
2019-05-18T06:14:25.793Z,101241.62
2019-05-18T06:17:15.436Z,101240.95
2019-05-18T06:20:10.505Z,101235.07
2019-05-18T06:22:59.592Z,101237.99
2019-05-18T06:25:49.016Z,101245.67
2019-05-18T06:28:38.592Z,101240.16
2019-05-18T06:31:28.649Z,101245.58
2019-05-18T06:34:18.199Z,101237.17
2019-05-18T06:37:07.719Z,101242.30
2019-05-18T06:39:57.162Z,101239.48
2019-05-18T06:42:46.837Z,101245.62
2019-05-18T06:45:36.324Z,101245.34
2019-05-18T06:48:25.957Z,101244.32
2019-05-18T06:51:15.255Z,101250.61
2019-05-18T06:54:04.748Z,101250.51
2019-05-18T06:56:55.018Z,101255.78
2019-05-18T06:59:45.406Z,101249.99
2019-05-18T07:02:35.025Z,101249.02
2019-05-18T07:05:24.630Z,101249.33
2019-05-18T07:08:13.870Z,101247.82
2019-05-18T07:11:03.168Z,101241.56
2019-05-18T07:13:52.711Z,101237.37
2019-05-18T07:16:42.285Z,101235.31
2019-05-18T07:19:31.713Z,101238.11
2019-05-18T07:22:03.887Z,101239.21
2019-05-18T07:24:35.965Z,101199.73
2019-05-18T07:27:07.970Z,101239.69
2019-05-18T07:29:39.997Z,101234.63
2019-05-18T07:32:12.027Z,101234.75
2019-05-18T07:34:44.288Z,101229.52
2019-05-18T07:37:16.448Z,101223.95
2019-05-18T07:39:48.954Z,101222.44
2019-05-18T07:42:21.355Z,101222.00
2019-05-18T07:44:53.458Z,101227.05
2019-05-18T07:47:25.892Z,101228.45
2019-05-18T07:49:57.942Z,101229.83
2019-05-18T07:52:30.030Z,101228.18
2019-05-18T07:55:02.301Z,101226.49
2019-05-18T07:57:34.606Z,101219.78
2019-05-18T08:00:08.195Z,101221.00
2019-05-18T08:02:40.570Z,101223.18
2019-05-18T08:05:12.722Z,101223.95
2019-05-18T08:07:44.745Z,101220.02
2019-05-18T08:10:21.425Z,101227.98
2019-05-18T08:12:53.653Z,101225.92
2019-05-18T08:15:25.822Z,101226.82
2019-05-18T08:17:57.780Z,101188.20
2019-05-18T08:20:29.927Z,101226.09
2019-05-18T08:23:02.206Z,101228.47
2019-05-18T08:25:34.584Z,101224.05
2019-05-18T08:28:06.595Z,101232.06
2019-05-18T08:30:38.619Z,101230.87
2019-05-18T08:33:12.328Z,101229.24
2019-05-18T08:35:44.726Z,101226.08
2019-05-18T08:38:16.745Z,101216.97
2019-05-18T08:40:48.983Z,101216.81
2019-05-18T08:43:21.296Z,101221.45
2019-05-18T08:45:53.277Z,101220.18
2019-05-18T08:48:25.248Z,101218.08
2019-05-18T08:50:57.555Z,101220.70
2019-05-18T08:53:29.812Z,101221.83
2019-05-18T08:56:01.856Z,101224.50
2019-05-18T08:58:33.863Z,101215.02
2019-05-18T09:01:06.276Z,101217.80
2019-05-18T09:03:38.257Z,101220.17
2019-05-18T09:06:10.306Z,101228.52
2019-05-18T09:08:42.627Z,101226.47
2019-05-18T09:11:14.695Z,101217.09
2019-05-18T09:13:46.753Z,101217.97
2019-05-18T09:16:18.845Z,101211.06
2019-05-18T09:18:50.903Z,101211.95
2019-05-18T09:21:22.926Z,101214.66
2019-05-18T09:23:54.963Z,101218.50
2019-05-18T09:26:27.004Z,101206.56
2019-05-18T09:28:58.953Z,101193.37
2019-05-18T09:31:30.948Z,101186.00
2019-05-18T09:34:03.015Z,101183.67
2019-05-18T09:36:34.972Z,101183.34
2019-05-18T09:39:08.279Z,101175.63
2019-05-18T09:41:40.528Z,101174.42
2019-05-18T09:44:12.762Z,101175.38
2019-05-18T09:46:45.120Z,101168.56
2019-05-18T09:49:17.250Z,101168.16
2019-05-18T09:51:49.641Z,101164.91
2019-05-18T09:54:21.612Z,101162.40
2019-05-18T09:56:53.604Z,101117.41
2019-05-18T09:59:25.630Z,101157.26
2019-05-18T10:01:57.682Z,101155.82
2019-05-18T10:04:29.725Z,101155.61
2019-05-18T10:07:01.774Z,101143.98
2019-05-18T10:09:39.198Z,101099.74
2019-05-18T10:12:07.820Z,101136.95
2019-05-18T10:14:39.862Z,101137.12
2019-05-18T10:17:12.786Z,101138.02
2019-05-18T10:19:45.154Z,101142.61
2019-05-18T10:22:17.188Z,101138.55
2019-05-18T10:24:49.225Z,101128.69
2019-05-18T10:27:21.268Z,101123.23
2019-05-18T10:29:53.255Z,101121.77
2019-05-18T10:32:25.200Z,101130.11
2019-05-18T10:34:57.467Z,101123.66
2019-05-18T10:37:29.724Z,101116.00
2019-05-18T10:40:01.698Z,101126.03
2019-05-18T10:42:33.663Z,101121.70
2019-05-18T10:45:10.202Z,101114.28
2019-05-18T10:47:42.402Z,101113.53
2019-05-18T10:50:15.509Z,101110.25
2019-05-18T10:52:47.806Z,101109.20
2019-05-18T10:55:21.435Z,101099.92
2019-05-18T10:57:53.423Z,101100.66
2019-05-18T11:00:26.091Z,101061.07
2019-05-18T11:02:58.062Z,101098.13
2019-05-18T11:05:30.285Z,101095.35
2019-05-18T11:08:02.297Z,101103.55
2019-05-18T11:10:34.588Z,101094.80
2019-05-18T11:13:06.659Z,101085.95
2019-05-18T11:15:38.786Z,101093.58
2019-05-18T11:18:10.773Z,101089.62
2019-05-18T11:20:42.723Z,101086.53
2019-05-18T11:23:14.677Z,101081.41
2019-05-18T11:25:46.737Z,101078.50
2019-05-18T11:28:18.672Z,101077.05
2019-05-18T11:30:50.717Z,101075.42
2019-05-18T11:33:23.147Z,101076.69
2019-05-18T11:35:55.125Z,101069.72
2019-05-18T11:38:27.114Z,101070.77
2019-05-18T11:40:59.885Z,101066.33
2019-05-18T11:43:31.925Z,101069.64
2019-05-18T11:46:04.021Z,101067.80
2019-05-18T11:48:35.994Z,101072.05
2019-05-18T11:51:08.139Z,101063.52
2019-05-18T11:53:40.599Z,101063.70
2019-05-18T11:56:12.686Z,101080.98
2019-05-18T11:58:44.737Z,101069.81
2019-05-18T12:01:16.731Z,101068.28
2019-05-18T12:03:49.505Z,101062.84
2019-05-18T12:06:21.562Z,101057.23
2019-05-18T12:08:53.567Z,101060.70
2019-05-18T12:11:25.985Z,101054.77
2019-05-18T12:13:58.057Z,101051.96
2019-05-18T12:16:30.115Z,101058.27
2019-05-18T12:19:02.090Z,101054.91
2019-05-18T12:21:34.412Z,101052.10
2019-05-18T12:24:15.538Z,101047.69
2019-05-18T12:26:40.521Z,101044.63
2019-05-18T12:29:12.516Z,101047.18
2019-05-18T12:31:44.562Z,101048.40
2019-05-18T12:34:16.610Z,101061.08
2019-05-18T12:36:48.578Z,101049.98
2019-05-18T12:39:20.809Z,101043.27
2019-05-18T12:41:52.765Z,101051.56
2019-05-18T12:44:25.075Z,101042.93
2019-05-18T12:46:57.229Z,101048.62
2019-05-18T12:49:29.295Z,101043.21
2019-05-18T12:52:01.603Z,101035.81
2019-05-18T12:54:45.563Z,101031.71
2019-05-18T12:57:07.377Z,101036.52
2019-05-18T12:59:39.441Z,101041.43
2019-05-18T13:02:11.436Z,101040.81
2019-05-18T13:04:43.405Z,101040.55
2019-05-18T13:07:15.452Z,101049.52
2019-05-18T13:09:47.444Z,101036.75
2019-05-18T13:12:19.499Z,101039.48
2019-05-18T13:14:51.995Z,101046.19
2019-05-18T13:17:24.244Z,101044.09
2019-05-18T13:19:56.253Z,101039.51
2019-05-18T13:22:28.280Z,101036.63
2019-05-18T13:25:00.392Z,101044.75
2019-05-18T13:27:39.550Z,101029.83
2019-05-18T13:30:09.254Z,101031.77
2019-05-18T13:32:41.683Z,101032.67
2019-05-18T13:35:16.181Z,101033.75
2019-05-18T13:37:48.169Z,101042.42
2019-05-18T13:40:20.805Z,101032.58
2019-05-18T13:42:53.076Z,101039.94
2019-05-18T13:45:25.492Z,101021.72
2019-05-18T13:47:57.722Z,101020.50
2019-05-18T13:50:29.746Z,101023.30
2019-05-18T13:53:01.776Z,101018.10
2019-05-18T13:55:33.739Z,101011.84
2019-05-18T13:58:06.012Z,101006.14
2019-05-18T14:00:38.065Z,101008.34
2019-05-18T14:03:10.097Z,101002.91
2019-05-18T14:05:42.135Z,101013.94
2019-05-18T14:08:15.702Z,101004.69
2019-05-18T14:10:48.039Z,101011.20
2019-05-18T14:13:20.128Z,101013.13
2019-05-18T14:15:52.097Z,101005.41
2019-05-18T14:18:24.112Z,101018.41
2019-05-18T14:20:56.319Z,101010.13
2019-05-18T14:23:28.473Z,101000.31
2019-05-18T14:26:00.524Z,100993.23
2019-05-18T14:28:32.633Z,100994.15
2019-05-18T14:31:04.769Z,100986.56
2019-05-18T14:33:36.790Z,101005.98
2019-05-18T14:36:09.017Z,100996.93
2019-05-18T14:38:41.408Z,101003.57
2019-05-18T14:41:14.002Z,100999.98
2019-05-18T14:43:46.009Z,100945.50
2019-05-18T14:46:18.049Z,100989.48
2019-05-18T14:48:50.444Z,100996.67
2019-05-18T14:51:22.470Z,100990.21
2019-05-18T14:53:54.705Z,100994.05
2019-05-18T14:56:26.963Z,100997.72
2019-05-18T14:58:58.940Z,101003.99
2019-05-18T15:01:31.237Z,100991.44
2019-05-18T15:04:03.606Z,100984.06
2019-05-18T15:06:35.678Z,100978.72
2019-05-18T15:09:07.942Z,100984.99
2019-05-18T15:11:39.988Z,100998.23
2019-05-18T15:14:12.056Z,100977.36
2019-05-18T15:16:44.097Z,100979.88
2019-05-18T15:19:16.103Z,100981.26
2019-05-18T15:21:48.215Z,100984.27
2019-05-18T15:24:20.255Z,100983.88
2019-05-18T15:26:52.285Z,100988.64
2019-05-18T15:29:24.588Z,100982.92
2019-05-18T15:31:56.682Z,100979.48
2019-05-18T15:34:28.725Z,100940.70
2019-05-18T15:37:00.698Z,100984.67
2019-05-18T15:39:32.809Z,100987.84
2019-05-18T15:42:05.200Z,100990.02
2019-05-18T15:44:37.648Z,100977.54
2019-05-18T15:47:10.476Z,100977.33
2019-05-18T15:49:42.454Z,100972.71
2019-05-18T15:52:14.489Z,100973.98
2019-05-18T15:54:46.639Z,100982.27
2019-05-18T15:57:18.643Z,100985.44
2019-05-18T15:59:50.613Z,100967.12
2019-05-18T16:02:22.770Z,100973.08
2019-05-18T16:04:54.805Z,100967.62
2019-05-18T16:07:26.842Z,100972.14
2019-05-18T16:09:58.975Z,100970.95
2019-05-18T16:12:31.032Z,100983.88
2019-05-18T16:15:03.517Z,100970.89
2019-05-18T16:17:39.298Z,100975.09
2019-05-18T16:20:11.905Z,100972.35
2019-05-18T16:22:44.531Z,100967.86
2019-05-18T16:25:16.968Z,100969.15
2019-05-18T16:27:49.697Z,100972.44
2019-05-18T16:30:22.578Z,100974.78
2019-05-18T16:32:54.637Z,100971.05
2019-05-18T16:35:26.814Z,100979.58
2019-05-18T16:37:58.751Z,100973.75
2019-05-18T16:40:30.714Z,100975.20
2019-05-18T16:43:10.402Z,100983.03
2019-05-18T16:45:43.505Z,100978.30
2019-05-18T16:48:17.963Z,100982.72
2019-05-18T16:50:51.947Z,100979.23
2019-05-18T16:53:28.744Z,100979.49
2019-05-18T16:56:01.461Z,100976.25
2019-05-18T16:58:33.793Z,100982.16
2019-05-18T17:01:05.891Z,100987.31
2019-05-18T17:03:39.925Z,100987.38
2019-05-18T17:06:11.995Z,100980.81
2019-05-18T17:08:43.962Z,100982.06
2019-05-18T17:11:17.840Z,100980.95
2019-05-18T17:13:49.889Z,100983.98
2019-05-18T17:16:21.962Z,100987.13
2019-05-18T17:18:53.997Z,100987.89
2019-05-18T17:21:26.038Z,100987.28
2019-05-18T17:23:58.712Z,100997.80
2019-05-18T17:26:30.745Z,100991.36
2019-05-18T17:29:03.151Z,100986.47
2019-05-18T17:31:41.802Z,100997.98
2019-05-18T17:34:14.966Z,101000.58
2019-05-18T17:36:52.465Z,101003.16
2019-05-18T17:39:22.484Z,100995.39
2019-05-18T17:41:54.652Z,100992.63
2019-05-18T17:44:26.653Z,100999.34
2019-05-18T17:46:58.961Z,101000.69
2019-05-18T17:49:30.973Z,100947.59
2019-05-18T17:52:03.085Z,100992.50
2019-05-18T17:54:35.194Z,100991.52
2019-05-18T17:57:09.039Z,100997.16
2019-05-18T17:59:41.310Z,101005.15
2019-05-18T18:02:13.380Z,101005.68
2019-05-18T18:04:45.808Z,101012.31
2019-05-18T18:07:17.832Z,101007.00
2019-05-18T18:09:49.794Z,101013.91
2019-05-18T18:12:21.856Z,101012.91
2019-05-18T18:14:53.832Z,100964.49
2019-05-18T18:17:25.799Z,101010.22
2019-05-18T18:19:57.956Z,101017.03
2019-05-18T18:22:30.098Z,101010.51
2019-05-18T18:25:02.436Z,101008.34
2019-05-18T18:27:34.379Z,101011.21
2019-05-18T18:30:11.065Z,101005.22
2019-05-18T18:32:43.692Z,101007.40
2019-05-18T18:35:15.744Z,101014.15
2019-05-18T18:37:47.730Z,101012.22
2019-05-18T18:40:19.697Z,101015.11
2019-05-18T18:42:51.737Z,101013.25
2019-05-18T18:45:23.729Z,101009.42
2019-05-18T18:47:55.751Z,101013.84
2019-05-18T18:50:27.799Z,101009.02
2019-05-18T18:52:59.911Z,101015.75
2019-05-18T18:55:32.348Z,101023.46
2019-05-18T18:58:05.322Z,101023.55
2019-05-18T19:00:37.879Z,101021.90
2019-05-18T19:03:09.885Z,101035.02
2019-05-18T19:05:41.939Z,101028.99
2019-05-18T19:08:13.906Z,101026.33
2019-05-18T19:10:45.947Z,101033.03
2019-05-18T19:13:17.909Z,101033.31
2019-05-18T19:15:49.973Z,101032.16
2019-05-18T19:18:24.385Z,101024.88
2019-05-18T19:20:56.650Z,101025.26
2019-05-18T19:23:28.639Z,101020.44
2019-05-18T19:26:01.988Z,101023.01
2019-05-18T19:28:34.128Z,101023.81
2019-05-18T19:31:06.240Z,101018.71
2019-05-18T19:33:39.289Z,101021.94
2019-05-18T19:36:11.315Z,101029.63
2019-05-18T19:38:43.519Z,101026.98
2019-05-18T19:41:16.809Z,101027.30
2019-05-18T19:43:48.895Z,101027.93
2019-05-18T19:46:20.936Z,101026.23
2019-05-18T19:48:54.023Z,101023.95
2019-05-18T19:51:26.411Z,101026.59
2019-05-18T19:53:58.756Z,101033.34
2019-05-18T19:56:38.282Z,101032.24
2019-05-18T19:59:05.244Z,101040.87
2019-05-18T20:01:37.602Z,101039.41
2019-05-18T20:04:09.594Z,101034.91
2019-05-18T20:06:41.615Z,101041.02
2019-05-18T20:09:13.845Z,101040.55
2019-05-18T20:11:45.849Z,101038.53
2019-05-18T20:14:17.884Z,101041.25
2019-05-18T20:16:51.211Z,101042.81
2019-05-18T20:19:37.910Z,101039.59
2019-05-18T20:21:57.335Z,101041.39
2019-05-18T20:24:39.479Z,101039.93
2019-05-18T20:27:11.481Z,101040.46
2019-05-18T20:29:43.873Z,101034.86
2019-05-18T20:32:16.033Z,101041.76
2019-05-18T20:34:48.333Z,101047.66
2019-05-18T20:37:20.745Z,101039.02
2019-05-18T20:39:52.870Z,101044.58
2019-05-18T20:42:24.963Z,101048.66
2019-05-18T20:44:58.205Z,101043.42
2019-05-18T20:47:30.380Z,101041.06
2019-05-18T20:50:03.772Z,101046.64
2019-05-18T20:52:35.808Z,101051.05
2019-05-18T20:55:08.118Z,101050.17
2019-05-18T20:57:40.098Z,101049.48
2019-05-18T21:00:12.110Z,101052.50
2019-05-18T21:02:44.451Z,101052.59
2019-05-18T21:05:16.696Z,101054.34
2019-05-18T21:07:48.948Z,101053.77
2019-05-18T21:10:22.357Z,101056.48
2019-05-18T21:12:54.467Z,101051.78
2019-05-18T21:15:45.760Z,101054.26
2019-05-18T21:18:17.793Z,101053.32
2019-05-18T21:20:51.944Z,101053.44
2019-05-18T21:23:24.213Z,101052.50
2019-05-18T21:25:56.585Z,101053.72
2019-05-18T21:28:28.929Z,101054.28
2019-05-18T21:31:02.895Z,101043.27
2019-05-18T21:33:34.950Z,101049.38
2019-05-18T21:36:07.277Z,101049.93
2019-05-18T21:38:39.582Z,101049.19
2019-05-18T21:41:11.601Z,101053.59
2019-05-18T21:43:43.610Z,101046.80
2019-05-18T21:46:17.190Z,101048.52
2019-05-18T21:48:49.172Z,101046.11
2019-05-18T21:51:21.516Z,101053.16
2019-05-18T21:53:53.571Z,101044.84
2019-05-18T21:56:25.564Z,101037.44
2019-05-18T21:59:10.744Z,101044.85
2019-05-18T22:01:37.382Z,101041.49
2019-05-18T22:04:09.359Z,101040.59
2019-05-18T22:06:41.732Z,101041.80
2019-05-18T22:09:13.793Z,101044.08
2019-05-18T22:11:45.792Z,101042.19
2019-05-18T22:14:18.034Z,101040.94
2019-05-18T22:16:50.381Z,101045.06
2019-05-18T22:19:22.706Z,101039.32
2019-05-18T22:21:57.495Z,101045.01
2019-05-18T22:24:29.866Z,101045.27
2019-05-18T22:27:02.205Z,101040.56
2019-05-18T22:29:34.194Z,101037.04
2019-05-18T22:32:06.528Z,101037.34
2019-05-18T22:34:38.591Z,100981.14
2019-05-18T22:37:10.555Z,101029.15
2019-05-18T22:39:42.676Z,101033.33
2019-05-18T22:42:14.914Z,101034.85
2019-05-18T22:44:47.307Z,101033.92
2019-05-18T22:47:19.575Z,101034.23
2019-05-18T22:49:51.629Z,101025.05
2019-05-18T22:52:23.856Z,101023.22
2019-05-18T22:54:55.887Z,101021.98
2019-05-18T22:57:27.929Z,101023.95
2019-05-18T22:59:59.987Z,101020.03
2019-05-18T23:02:32.044Z,101020.45
2019-05-18T23:05:04.921Z,101024.13
2019-05-18T23:07:37.139Z,101023.65
2019-05-18T23:10:09.325Z,101022.34
2019-05-18T23:12:41.336Z,101024.23
2019-05-18T23:15:13.953Z,101024.84
2019-05-18T23:17:46.041Z,101026.81
2019-05-18T23:20:18.192Z,101025.77
2019-05-18T23:22:50.895Z,101030.30
2019-05-18T23:25:22.870Z,101026.95
2019-05-18T23:27:54.900Z,101015.72
2019-05-18T23:30:26.965Z,101019.95
2019-05-18T23:32:58.991Z,101020.86
2019-05-18T23:35:31.133Z,101011.84
2019-05-18T23:38:03.140Z,101008.61
2019-05-18T23:40:35.151Z,101017.00
2019-05-18T23:43:07.166Z,101012.80
2019-05-18T23:45:39.258Z,101016.60
2019-05-18T23:48:11.237Z,101014.71
2019-05-18T23:50:43.264Z,101014.13
2019-05-18T23:53:15.261Z,101010.08
2019-05-18T23:55:47.301Z,101009.84
2019-05-18T23:58:19.226Z,101005.84
